createdAt,value
2019-03-06T00:00:36.914Z,1004.86
2019-03-06T00:01:36.917Z,1004.84
2019-03-06T00:02:36.891Z,1004.81
2019-03-06T00:03:36.882Z,1004.82
2019-03-06T00:04:36.865Z,1004.82
2019-03-06T00:05:36.856Z,1004.80
2019-03-06T00:06:36.873Z,1004.81
2019-03-06T00:07:36.839Z,1004.77
2019-03-06T00:08:36.830Z,1004.78
2019-03-06T00:09:36.814Z,1004.75
2019-03-06T00:10:36.819Z,1004.78
2019-03-06T00:11:36.829Z,1004.72
2019-03-06T00:12:36.796Z,1004.69
2019-03-06T00:13:36.785Z,1004.71
2019-03-06T00:14:36.767Z,1004.67
2019-03-06T00:15:36.753Z,1004.68
2019-03-06T00:16:36.760Z,1004.73
2019-03-06T00:17:36.731Z,1004.69
2019-03-06T00:18:36.725Z,1004.70
2019-03-06T00:19:36.720Z,1004.64
2019-03-06T00:20:36.698Z,1004.62
2019-03-06T00:21:36.707Z,1004.59
2019-03-06T00:22:36.683Z,1004.55
2019-03-06T00:23:36.671Z,1004.54
2019-03-06T00:24:36.658Z,1004.51
2019-03-06T00:25:36.653Z,1004.52
2019-03-06T00:26:36.666Z,1004.54
2019-03-06T00:27:36.628Z,1004.51
2019-03-06T00:28:36.627Z,1004.48
2019-03-06T00:29:36.614Z,1004.50
2019-03-06T00:30:36.595Z,1004.51
2019-03-06T00:31:36.607Z,1004.49
2019-03-06T00:32:36.577Z,1004.56
2019-03-06T00:33:36.575Z,1004.47
2019-03-06T00:34:36.556Z,1004.45
2019-03-06T00:35:36.548Z,1004.41
2019-03-06T00:36:36.554Z,1004.43
2019-03-06T00:37:36.528Z,1004.44
2019-03-06T00:38:36.553Z,1004.43
2019-03-06T00:39:36.506Z,1004.40
2019-03-06T00:40:36.493Z,1004.39
2019-03-06T00:41:36.525Z,1004.35
2019-03-06T00:42:36.472Z,1004.36
2019-03-06T00:43:36.462Z,1004.37
2019-03-06T00:44:36.459Z,1004.40
2019-03-06T00:45:36.448Z,1004.38
2019-03-06T00:46:36.459Z,1004.35
2019-03-06T00:47:36.452Z,1004.34
2019-03-06T00:48:36.410Z,1004.37
2019-03-06T00:49:36.399Z,1004.33
2019-03-06T00:50:36.406Z,1004.35
2019-03-06T00:51:36.382Z,1004.35
2019-03-06T00:52:36.385Z,1004.34
2019-03-06T00:53:36.357Z,1004.31
2019-03-06T00:54:36.344Z,1004.32
2019-03-06T00:55:36.335Z,1004.31
2019-03-06T00:56:36.326Z,1004.30
2019-03-06T00:57:36.341Z,1004.22
2019-03-06T00:58:36.304Z,1004.23
2019-03-06T00:59:36.292Z,1004.26
2019-03-06T01:00:36.282Z,1004.24
2019-03-06T01:01:36.274Z,1004.29
2019-03-06T01:02:36.281Z,1004.25
2019-03-06T01:03:36.265Z,1004.25
2019-03-06T01:04:36.240Z,1004.21
2019-03-06T01:05:36.230Z,1004.16
2019-03-06T01:06:36.217Z,1004.21
2019-03-06T01:07:36.227Z,1004.20
2019-03-06T01:08:36.200Z,1004.16
2019-03-06T01:09:36.193Z,1004.16
2019-03-06T01:10:36.203Z,1004.14
2019-03-06T01:11:36.193Z,1004.20
2019-03-06T01:12:36.176Z,1004.17
2019-03-06T01:13:36.161Z,1004.11
2019-03-06T01:14:36.135Z,1004.18
2019-03-06T01:15:36.143Z,1004.15
2019-03-06T01:16:36.123Z,1004.14
2019-03-06T01:17:36.137Z,1004.11
2019-03-06T01:18:36.095Z,1004.14
2019-03-06T01:19:36.086Z,1004.15
2019-03-06T01:20:36.072Z,1004.11
2019-03-06T01:21:36.066Z,1004.16
2019-03-06T01:22:36.089Z,1004.12
2019-03-06T01:23:36.054Z,1004.11
2019-03-06T01:24:36.037Z,1004.12
2019-03-06T01:25:36.026Z,1004.09
2019-03-06T01:26:36.025Z,1004.08
2019-03-06T01:27:36.028Z,1004.08
2019-03-06T01:28:35.994Z,1004.10
2019-03-06T01:29:35.992Z,1004.10
2019-03-06T01:30:35.970Z,1004.03
2019-03-06T01:31:35.963Z,1004.07
2019-03-06T01:32:35.977Z,1004.03
2019-03-06T01:33:35.943Z,1003.99
2019-03-06T01:34:35.935Z,1003.99
2019-03-06T01:35:35.927Z,1004.00
2019-03-06T01:36:35.907Z,1004.03
2019-03-06T01:37:35.921Z,1003.96
2019-03-06T01:38:35.888Z,1003.96
2019-03-06T01:39:35.881Z,1003.93
2019-03-06T01:40:35.866Z,1003.92
2019-03-06T01:41:35.858Z,1003.91
2019-03-06T01:42:35.876Z,1003.90
2019-03-06T01:43:35.840Z,1003.93
2019-03-06T01:44:35.825Z,1003.90
2019-03-06T01:45:35.825Z,1003.87
2019-03-06T01:46:35.809Z,1003.90
2019-03-06T01:47:35.816Z,1003.85
2019-03-06T01:48:35.785Z,1003.89
2019-03-06T01:49:35.773Z,1003.85
2019-03-06T01:50:35.763Z,1003.84
2019-03-06T01:51:35.760Z,1003.89
2019-03-06T01:52:35.769Z,1003.88
2019-03-06T01:53:35.734Z,1003.90
2019-03-06T01:54:35.720Z,1003.89
2019-03-06T01:55:35.712Z,1003.80
2019-03-06T01:56:35.705Z,1003.83
2019-03-06T01:57:35.710Z,1003.79
2019-03-06T01:58:35.694Z,1003.80
2019-03-06T01:59:35.671Z,1003.78
2019-03-06T02:00:35.662Z,1003.77
2019-03-06T02:01:35.651Z,1003.76
2019-03-06T02:02:35.659Z,1003.72
2019-03-06T02:03:35.629Z,1003.74
2019-03-06T02:04:35.627Z,1003.76
2019-03-06T02:05:35.624Z,1003.67
2019-03-06T02:06:35.598Z,1003.68
2019-03-06T02:07:35.612Z,1003.68
2019-03-06T02:08:35.577Z,1003.66
2019-03-06T02:09:35.565Z,1003.61
2019-03-06T02:10:35.556Z,1003.63
2019-03-06T02:11:35.553Z,1003.60
2019-03-06T02:12:35.558Z,1003.52
2019-03-06T02:13:35.526Z,1003.52
2019-03-06T02:14:35.515Z,1003.43
2019-03-06T02:15:35.508Z,1003.50
2019-03-06T02:16:35.499Z,1003.48
2019-03-06T02:17:35.513Z,1003.52
2019-03-06T02:18:35.482Z,1003.51
2019-03-06T02:19:35.465Z,1003.53
2019-03-06T02:20:35.453Z,1003.48
2019-03-06T02:21:35.442Z,1003.50
2019-03-06T02:22:35.469Z,1003.45
2019-03-06T02:23:35.444Z,1003.39
2019-03-06T02:24:35.426Z,1003.37
2019-03-06T02:25:35.402Z,1003.34
2019-03-06T02:26:35.390Z,1003.33
2019-03-06T02:27:35.381Z,1003.26
2019-03-06T02:28:35.396Z,1003.24
2019-03-06T02:29:35.368Z,1003.21
2019-03-06T02:30:35.356Z,1003.17
2019-03-06T02:31:35.340Z,1003.15
2019-03-06T02:32:35.330Z,1003.07
2019-03-06T02:33:35.350Z,1003.05
2019-03-06T02:34:35.316Z,1003.13
2019-03-06T02:35:35.386Z,1003.10
2019-03-06T02:36:35.289Z,1003.12
2019-03-06T02:37:35.284Z,1003.15
2019-03-06T02:38:35.312Z,1003.17
2019-03-06T02:39:35.263Z,1003.12
2019-03-06T02:40:35.247Z,1003.13
2019-03-06T02:41:35.251Z,1003.09
2019-03-06T02:42:35.229Z,1003.10
2019-03-06T02:43:35.254Z,1003.08
2019-03-06T02:44:35.206Z,1003.11
2019-03-06T02:45:35.196Z,1003.14
2019-03-06T02:46:35.193Z,1003.14
2019-03-06T02:47:35.179Z,1003.17
2019-03-06T02:48:35.184Z,1003.18
2019-03-06T02:49:35.157Z,1003.19
2019-03-06T02:50:35.149Z,1003.14
2019-03-06T02:51:35.147Z,1003.17
2019-03-06T02:52:35.126Z,1003.06
2019-03-06T02:53:35.152Z,1003.06
2019-03-06T02:54:35.107Z,1002.98
2019-03-06T02:55:35.094Z,1003.00
2019-03-06T02:56:35.081Z,1002.97
2019-03-06T02:57:35.077Z,1003.00
2019-03-06T02:58:35.083Z,1002.94
2019-03-06T02:59:35.063Z,1002.88
2019-03-06T03:00:35.045Z,1002.84
2019-03-06T03:01:35.029Z,1002.83
2019-03-06T03:02:35.018Z,1002.78
2019-03-06T03:03:35.032Z,1002.78
2019-03-06T03:04:35.005Z,1002.72
2019-03-06T03:05:35.006Z,1002.80
2019-03-06T03:06:34.980Z,1002.76
2019-03-06T03:07:34.971Z,1002.69
2019-03-06T03:08:34.981Z,1002.75
2019-03-06T03:09:34.946Z,1002.67
2019-03-06T03:10:34.947Z,1002.63
2019-03-06T03:11:34.940Z,1002.57
2019-03-06T03:12:34.914Z,1002.62
2019-03-06T03:13:34.937Z,1002.57
2019-03-06T03:14:34.893Z,1002.58
2019-03-06T03:15:34.892Z,1002.56
2019-03-06T03:16:34.893Z,1002.54
2019-03-06T03:17:34.876Z,1002.54
2019-03-06T03:18:34.870Z,1002.55
2019-03-06T03:19:34.846Z,1002.55
2019-03-06T03:20:34.841Z,1002.51
2019-03-06T03:21:34.821Z,1002.48
2019-03-06T03:22:34.810Z,1002.48
2019-03-06T03:23:34.825Z,1002.46
2019-03-06T03:24:34.788Z,1002.47
2019-03-06T03:25:34.789Z,1002.41
2019-03-06T03:26:34.774Z,1002.47
2019-03-06T03:27:34.759Z,1002.54
2019-03-06T03:28:34.770Z,1002.48
2019-03-06T03:29:34.761Z,1002.46
2019-03-06T03:30:34.732Z,1002.44
2019-03-06T03:31:34.740Z,1002.45
2019-03-06T03:32:34.717Z,1002.44
2019-03-06T03:33:34.715Z,1002.47
2019-03-06T03:34:34.708Z,1002.46
2019-03-06T03:35:34.674Z,1002.40
2019-03-06T03:36:34.671Z,1002.40
2019-03-06T03:37:34.671Z,1002.44
2019-03-06T03:38:34.666Z,1002.42
2019-03-06T03:39:34.651Z,1002.42
2019-03-06T03:40:34.626Z,1002.36
2019-03-06T03:41:34.613Z,1002.35
2019-03-06T03:42:34.607Z,1002.30
2019-03-06T03:43:34.630Z,1002.29
2019-03-06T03:44:34.582Z,1002.24
2019-03-06T03:45:34.572Z,1002.17
2019-03-06T03:46:34.566Z,1002.11
2019-03-06T03:47:34.557Z,1002.08
2019-03-06T03:48:34.562Z,1002.13
2019-03-06T03:49:34.535Z,1002.11
2019-03-06T03:50:34.520Z,1002.06
2019-03-06T03:51:34.521Z,1002.03
2019-03-06T03:52:34.507Z,1002.07
2019-03-06T03:53:34.516Z,1002.04
2019-03-06T03:54:34.490Z,1002.07
2019-03-06T03:55:34.481Z,1002.06
2019-03-06T03:56:34.459Z,1002.04
2019-03-06T03:57:34.449Z,1002.10
2019-03-06T03:58:34.465Z,1002.09
2019-03-06T03:59:34.440Z,1002.15
2019-03-06T04:00:34.431Z,1002.12
2019-03-06T04:01:34.424Z,1002.10
2019-03-06T04:02:34.402Z,1002.05
2019-03-06T04:03:34.414Z,1002.04
2019-03-06T04:04:34.377Z,1001.97
2019-03-06T04:05:34.369Z,1002.00
2019-03-06T04:06:34.376Z,1001.97
2019-03-06T04:07:34.351Z,1001.96
2019-03-06T04:08:34.341Z,1001.88
2019-03-06T04:09:34.345Z,1001.89
2019-03-06T04:10:34.319Z,1001.86
2019-03-06T04:11:34.305Z,1001.87
2019-03-06T04:12:34.487Z,1001.84
2019-03-06T04:13:34.289Z,1001.90
2019-03-06T04:14:34.295Z,1002.00
2019-03-06T04:15:34.266Z,1002.00
2019-03-06T04:16:34.255Z,1001.97
2019-03-06T04:17:34.241Z,1002.01
2019-03-06T04:18:34.232Z,1001.92
2019-03-06T04:19:34.257Z,1001.88
2019-03-06T04:20:34.216Z,1001.91
2019-03-06T04:21:34.200Z,1001.89
2019-03-06T04:22:34.190Z,1001.85
2019-03-06T04:23:34.190Z,1001.86
2019-03-06T04:24:34.189Z,1001.85
2019-03-06T04:25:34.173Z,1001.81
2019-03-06T04:26:34.148Z,1001.86
2019-03-06T04:27:34.139Z,1001.80
2019-03-06T04:28:34.128Z,1001.85
2019-03-06T04:29:34.140Z,1001.86
2019-03-06T04:30:34.109Z,1001.88
2019-03-06T04:31:34.125Z,1001.90
2019-03-06T04:32:34.087Z,1001.91
2019-03-06T04:33:34.075Z,1001.91
2019-03-06T04:34:34.084Z,1001.86
2019-03-06T04:35:34.061Z,1001.84
2019-03-06T04:36:34.046Z,1001.86
2019-03-06T04:37:34.056Z,1001.83
2019-03-06T04:38:34.021Z,1001.93
2019-03-06T04:39:34.034Z,1001.85
2019-03-06T04:40:34.003Z,1001.86
2019-03-06T04:41:33.999Z,1001.88
2019-03-06T04:42:33.981Z,1001.83
2019-03-06T04:43:33.991Z,1001.84
2019-03-06T04:44:33.980Z,1001.71
2019-03-06T04:45:33.951Z,1001.74
2019-03-06T04:46:33.941Z,1001.68
2019-03-06T04:47:33.932Z,1001.64
2019-03-06T04:48:33.920Z,1001.74
2019-03-06T04:49:33.939Z,1001.75
2019-03-06T04:50:33.903Z,1001.79
2019-03-06T04:51:33.888Z,1001.68
2019-03-06T04:52:33.878Z,1001.55
2019-03-06T04:53:33.871Z,1001.53
2019-03-06T04:54:33.879Z,1001.56
2019-03-06T04:55:33.868Z,1001.60
2019-03-06T04:56:33.838Z,1001.56
2019-03-06T04:57:33.830Z,1001.54
2019-03-06T04:58:33.817Z,1001.58
2019-03-06T04:59:33.825Z,1001.53
2019-03-06T05:00:33.797Z,1001.45
2019-03-06T05:01:33.798Z,1001.44
2019-03-06T05:02:33.774Z,1001.47
2019-03-06T05:03:33.769Z,1001.42
2019-03-06T05:04:33.776Z,1001.40
2019-03-06T05:05:33.744Z,1001.44
2019-03-06T05:06:33.734Z,1001.44
2019-03-06T05:07:33.731Z,1001.48
2019-03-06T05:08:33.713Z,1001.44
2019-03-06T05:09:33.722Z,1001.44
2019-03-06T05:10:33.692Z,1001.41
2019-03-06T05:11:33.682Z,1001.41
2019-03-06T05:12:33.674Z,1001.45
2019-03-06T05:13:33.681Z,1001.38
2019-03-06T05:14:33.669Z,1001.35
2019-03-06T05:15:33.639Z,1001.35
2019-03-06T05:16:33.630Z,1001.32
2019-03-06T05:17:33.619Z,1001.32
2019-03-06T05:18:33.637Z,1001.28
2019-03-06T05:19:33.627Z,1001.26
2019-03-06T05:20:33.627Z,1001.28
2019-03-06T05:21:33.578Z,1001.23
2019-03-06T05:22:33.567Z,1001.26
2019-03-06T05:23:33.556Z,1001.26
2019-03-06T05:24:33.567Z,1001.20
2019-03-06T05:25:33.546Z,1001.11
2019-03-06T05:26:33.534Z,1001.08
2019-03-06T05:27:33.516Z,1001.08
2019-03-06T05:28:33.504Z,1001.06
2019-03-06T05:29:33.515Z,1001.07
2019-03-06T05:30:33.488Z,1001.07
2019-03-06T05:31:33.485Z,1001.03
2019-03-06T05:32:33.464Z,1001.00
2019-03-06T05:33:33.454Z,1000.95
2019-03-06T05:34:33.469Z,1000.92
2019-03-06T05:35:33.434Z,1000.99
2019-03-06T05:36:33.422Z,1000.87
2019-03-06T05:37:33.450Z,1000.92
2019-03-06T05:38:33.403Z,1000.87
2019-03-06T05:39:33.410Z,1000.82
2019-03-06T05:40:33.382Z,1000.82
2019-03-06T05:41:33.369Z,1000.83
2019-03-06T05:42:33.359Z,1000.82
2019-03-06T05:43:33.375Z,1000.84
2019-03-06T05:44:33.372Z,1000.82
2019-03-06T05:45:33.332Z,1000.81
2019-03-06T05:46:33.319Z,1000.71
2019-03-06T05:47:33.308Z,1000.74
2019-03-06T05:48:33.297Z,1000.68
2019-03-06T05:49:33.310Z,1000.68
2019-03-06T05:50:33.301Z,1000.69
2019-03-06T05:51:33.270Z,1000.58
2019-03-06T05:52:33.266Z,1000.65
2019-03-06T05:53:33.246Z,1000.62
2019-03-06T05:54:33.235Z,1000.62
2019-03-06T05:55:33.259Z,1000.65
2019-03-06T05:56:33.214Z,1000.68
2019-03-06T05:57:33.204Z,1000.60
2019-03-06T05:58:33.208Z,1000.62
2019-03-06T05:59:33.183Z,1000.67
2019-03-06T06:00:33.224Z,1000.63
2019-03-06T06:01:33.175Z,1000.62
2019-03-06T06:02:33.156Z,1000.54
2019-03-06T06:03:33.146Z,1000.50
2019-03-06T06:04:33.134Z,1000.49
2019-03-06T06:05:33.146Z,1000.47
2019-03-06T06:06:33.110Z,1000.42
2019-03-06T06:07:33.117Z,1000.48
2019-03-06T06:08:33.087Z,1000.43
2019-03-06T06:09:33.083Z,1000.48
2019-03-06T06:10:33.088Z,1000.45
2019-03-06T06:11:33.065Z,1000.50
2019-03-06T06:12:33.047Z,1000.45
2019-03-06T06:13:33.047Z,1000.42
2019-03-06T06:14:33.040Z,1000.40
2019-03-06T06:15:33.037Z,1000.38
2019-03-06T06:16:33.004Z,1000.42
2019-03-06T06:17:32.995Z,1000.40
2019-03-06T06:18:32.992Z,1000.44
2019-03-06T06:19:32.977Z,1000.40
2019-03-06T06:20:32.985Z,1000.46
2019-03-06T06:21:32.954Z,1000.44
2019-03-06T06:22:32.975Z,1000.40
2019-03-06T06:23:32.937Z,1000.37
2019-03-06T06:24:32.929Z,1000.31
2019-03-06T06:25:32.970Z,1000.26
2019-03-06T06:26:32.914Z,1000.27
2019-03-06T06:27:32.905Z,1000.24
2019-03-06T06:28:32.880Z,1000.23
2019-03-06T06:29:32.940Z,1000.22
2019-03-06T06:30:32.882Z,1000.20
2019-03-06T06:31:32.862Z,1000.15
2019-03-06T06:32:33.058Z,1000.15
2019-03-06T06:33:32.841Z,1000.19
2019-03-06T06:34:32.818Z,1000.15
2019-03-06T06:35:32.825Z,1000.19
2019-03-06T06:36:32.802Z,1000.15
2019-03-06T06:37:32.801Z,1000.12
2019-03-06T06:38:32.778Z,1000.16
2019-03-06T06:39:32.766Z,1000.17
2019-03-06T06:40:32.777Z,1000.18
2019-03-06T06:41:32.749Z,1000.10
2019-03-06T06:42:32.738Z,1000.09
2019-03-06T06:43:32.757Z,1000.06
2019-03-06T06:44:32.713Z,1000.04
2019-03-06T06:45:32.732Z,1000.01
2019-03-06T06:46:32.692Z,1000.02
2019-03-06T06:47:32.682Z,999.98
2019-03-06T06:48:32.674Z,999.96
2019-03-06T06:49:32.661Z,999.95
2019-03-06T06:50:32.685Z,999.97
2019-03-06T06:51:32.645Z,999.96
2019-03-06T06:52:32.640Z,1000.00
2019-03-06T06:53:32.620Z,999.99
2019-03-06T06:54:32.609Z,999.98
2019-03-06T06:55:32.619Z,999.91
2019-03-06T06:56:32.608Z,999.87
2019-03-06T06:57:32.593Z,999.92
2019-03-06T06:58:32.575Z,999.90
2019-03-06T06:59:32.572Z,999.89
2019-03-06T07:00:32.572Z,999.82
2019-03-06T07:01:32.537Z,999.77
2019-03-06T07:02:32.527Z,999.78
2019-03-06T07:03:32.520Z,999.78
2019-03-06T07:04:32.509Z,999.82
2019-03-06T07:05:32.518Z,999.76
2019-03-06T07:06:32.487Z,999.79
2019-03-06T07:07:32.479Z,999.77
2019-03-06T07:08:32.465Z,999.72
2019-03-06T07:09:32.454Z,999.68
2019-03-06T07:10:32.477Z,999.75
2019-03-06T07:11:32.440Z,999.66
2019-03-06T07:12:32.423Z,999.60
2019-03-06T07:13:32.413Z,999.60
2019-03-06T07:14:32.404Z,999.60
2019-03-06T07:15:32.416Z,999.54
2019-03-06T07:16:32.403Z,999.53
2019-03-06T07:17:32.371Z,999.51
2019-03-06T07:18:32.360Z,999.53
2019-03-06T07:19:32.351Z,999.51
2019-03-06T07:20:32.379Z,999.45
2019-03-06T07:21:32.327Z,999.48
2019-03-06T07:22:32.398Z,999.44
2019-03-06T07:23:32.328Z,999.46
2019-03-06T07:24:32.296Z,999.47
2019-03-06T07:25:32.322Z,999.47
2019-03-06T07:26:32.278Z,999.47
2019-03-06T07:27:32.271Z,999.45
2019-03-06T07:28:32.271Z,999.45
2019-03-06T07:29:32.248Z,999.43
2019-03-06T07:30:32.238Z,999.37
2019-03-06T07:31:32.245Z,999.41
2019-03-06T07:32:32.218Z,999.40
2019-03-06T07:33:32.204Z,999.45
2019-03-06T07:34:32.233Z,999.43
2019-03-06T07:35:32.183Z,999.40
2019-03-06T07:36:32.197Z,999.33
2019-03-06T07:37:32.162Z,999.35
2019-03-06T07:38:32.158Z,999.41
2019-03-06T07:39:32.317Z,999.47
2019-03-06T07:40:32.142Z,999.52
2019-03-06T07:41:32.142Z,999.38
2019-03-06T07:42:32.111Z,999.39
2019-03-06T07:43:32.100Z,999.41
2019-03-06T07:44:32.098Z,999.36
2019-03-06T07:45:32.083Z,999.35
2019-03-06T07:46:32.101Z,999.38
2019-03-06T07:47:32.070Z,999.35
2019-03-06T07:48:32.073Z,999.34
2019-03-06T07:49:32.044Z,999.24
2019-03-06T07:50:32.031Z,999.33
2019-03-06T07:51:32.065Z,999.28
2019-03-06T07:52:32.015Z,999.29
2019-03-06T07:53:32.001Z,999.23
2019-03-06T07:54:31.986Z,999.20
2019-03-06T07:55:31.980Z,999.18
2019-03-06T07:56:31.990Z,999.15
2019-03-06T07:57:31.959Z,999.10
2019-03-06T07:58:31.955Z,999.15
2019-03-06T07:59:31.937Z,999.06
2019-03-06T08:00:31.929Z,999.08
2019-03-06T08:01:31.937Z,999.04
2019-03-06T08:02:31.903Z,999.03
2019-03-06T08:03:31.891Z,999.12
2019-03-06T08:04:31.891Z,999.08
2019-03-06T08:05:31.874Z,999.09
2019-03-06T08:06:31.928Z,999.25
2019-03-06T08:07:31.899Z,999.08
2019-03-06T08:08:31.849Z,999.14
2019-03-06T08:09:31.831Z,999.06
2019-03-06T08:10:31.825Z,999.09
2019-03-06T08:11:31.829Z,999.06
2019-03-06T08:12:31.801Z,998.96
2019-03-06T08:13:31.795Z,999.00
2019-03-06T08:14:31.777Z,999.02
2019-03-06T08:15:31.767Z,998.94
2019-03-06T08:16:31.870Z,998.98
2019-03-06T08:17:31.753Z,998.94
2019-03-06T08:18:31.740Z,998.98
2019-03-06T08:19:31.729Z,998.96
2019-03-06T08:20:31.717Z,998.93
2019-03-06T08:21:31.725Z,998.91
2019-03-06T08:22:31.706Z,998.84
2019-03-06T08:23:31.682Z,998.82
2019-03-06T08:24:31.673Z,998.81
2019-03-06T08:25:31.661Z,998.71
2019-03-06T08:26:31.680Z,998.77
2019-03-06T08:27:31.639Z,998.69
2019-03-06T08:28:31.641Z,998.71
2019-03-06T08:29:31.619Z,998.71
2019-03-06T08:30:31.611Z,998.72
2019-03-06T08:31:31.617Z,998.74
2019-03-06T08:32:31.586Z,998.74
2019-03-06T08:33:31.575Z,998.75
2019-03-06T08:34:31.577Z,998.73
2019-03-06T08:35:31.554Z,998.67
2019-03-06T08:36:31.563Z,998.69
2019-03-06T08:37:31.532Z,998.63
2019-03-06T08:38:31.520Z,998.60
2019-03-06T08:39:31.509Z,998.81
2019-03-06T08:40:31.519Z,998.77
2019-03-06T08:41:31.509Z,998.69
2019-03-06T08:42:32.631Z,998.69
2019-03-06T08:43:31.477Z,998.67
2019-03-06T08:44:31.459Z,998.73
2019-03-06T08:45:31.469Z,998.73
2019-03-06T08:46:31.456Z,998.68
2019-03-06T08:47:31.433Z,998.65
2019-03-06T08:48:31.419Z,998.60
2019-03-06T08:49:31.401Z,998.59
2019-03-06T08:50:31.392Z,998.66
2019-03-06T08:51:31.400Z,998.60
2019-03-06T08:52:31.372Z,998.65
2019-03-06T08:53:31.369Z,998.67
2019-03-06T08:54:31.352Z,998.57
2019-03-06T08:55:31.337Z,998.61
2019-03-06T08:56:31.345Z,998.56
2019-03-06T08:57:31.316Z,998.66
2019-03-06T08:58:31.314Z,998.51
2019-03-06T08:59:31.353Z,998.56
2019-03-06T09:00:31.289Z,998.53
2019-03-06T09:01:31.295Z,998.52
2019-03-06T09:02:31.274Z,998.45
2019-03-06T09:03:31.251Z,998.52
2019-03-06T09:04:31.238Z,998.45
2019-03-06T09:05:31.259Z,998.38
2019-03-06T09:06:31.269Z,998.30
2019-03-06T09:07:31.213Z,998.30
2019-03-06T09:08:31.209Z,998.42
2019-03-06T09:09:31.182Z,998.19
2019-03-06T09:10:31.172Z,998.25
2019-03-06T09:11:31.171Z,998.17
2019-03-06T09:12:31.169Z,998.20
2019-03-06T09:13:31.135Z,998.14
2019-03-06T09:14:31.126Z,998.38
2019-03-06T09:15:31.114Z,998.20
2019-03-06T09:16:31.105Z,998.01
2019-03-06T09:17:31.120Z,998.02
2019-03-06T09:18:31.079Z,998.05
2019-03-06T09:19:31.074Z,998.13
2019-03-06T09:20:37.020Z,998.11
2019-03-06T09:21:32.048Z,998.09
2019-03-06T09:22:31.053Z,998.05
2019-03-06T09:23:31.043Z,998.09
2019-03-06T09:24:31.017Z,997.97
2019-03-06T09:25:31.009Z,997.95
2019-03-06T09:26:30.989Z,997.90
2019-03-06T09:27:31.002Z,997.86
2019-03-06T09:28:30.972Z,997.80
2019-03-06T09:29:30.977Z,997.85
2019-03-06T09:30:30.948Z,997.83
2019-03-06T09:31:30.933Z,997.78
2019-03-06T09:32:30.956Z,997.74
2019-03-06T09:33:30.909Z,997.89
2019-03-06T09:34:30.899Z,997.74
2019-03-06T09:35:30.905Z,997.74
2019-03-06T09:36:30.877Z,997.76
2019-03-06T09:37:30.883Z,997.77
2019-03-06T09:38:30.855Z,997.74
2019-03-06T09:39:30.842Z,997.67
2019-03-06T09:40:31.324Z,997.75
2019-03-06T09:41:30.843Z,997.76
2019-03-06T09:42:30.848Z,997.84
2019-03-06T09:43:30.802Z,997.59
2019-03-06T09:44:30.785Z,997.50
2019-03-06T09:45:30.778Z,997.50
2019-03-06T09:46:30.773Z,997.59
2019-03-06T09:47:30.784Z,997.65
2019-03-06T09:48:30.748Z,997.62
2019-03-06T09:49:30.728Z,997.71
2019-03-06T09:50:30.717Z,997.56
2019-03-06T09:51:30.705Z,997.65
2019-03-06T09:52:30.719Z,997.56
2019-03-06T09:53:30.695Z,997.64
2019-03-06T09:54:30.670Z,997.59
2019-03-06T09:55:30.662Z,997.57
2019-03-06T09:56:30.653Z,997.59
2019-03-06T09:57:30.660Z,997.54
2019-03-06T09:58:30.640Z,997.57
2019-03-06T09:59:30.632Z,997.54
2019-03-06T10:00:32.684Z,998.07
2019-03-06T10:01:30.595Z,997.87
2019-03-06T10:02:30.599Z,997.70
2019-03-06T10:03:30.571Z,997.88
2019-03-06T10:04:30.560Z,997.64
2019-03-06T10:05:30.591Z,997.72
2019-03-06T10:06:30.534Z,997.70
2019-03-06T10:07:30.543Z,997.69
2019-03-06T10:08:30.526Z,997.73
2019-03-06T10:09:30.508Z,997.72
2019-03-06T10:10:30.512Z,997.78
2019-03-06T10:11:30.496Z,997.86
2019-03-06T10:12:30.493Z,997.51
2019-03-06T10:13:30.455Z,997.62
2019-03-06T10:14:30.449Z,997.52
2019-03-06T10:15:30.446Z,997.52
2019-03-06T10:16:30.422Z,997.49
2019-03-06T10:17:30.457Z,997.52
2019-03-06T10:18:30.399Z,997.32
2019-03-06T10:19:30.387Z,997.28
2019-03-06T10:20:30.384Z,997.31
2019-03-06T10:21:30.365Z,997.21
2019-03-06T10:22:30.391Z,997.24
2019-03-06T10:23:30.352Z,997.23
2019-03-06T10:24:30.330Z,997.16
2019-03-06T10:25:32.194Z,997.17
2019-03-06T10:26:30.307Z,997.10
2019-03-06T10:27:30.316Z,997.20
2019-03-06T10:28:30.286Z,997.14
2019-03-06T10:29:30.273Z,997.22
2019-03-06T10:30:30.266Z,997.23
2019-03-06T10:31:30.260Z,997.22
2019-03-06T10:32:30.259Z,997.40
2019-03-06T10:33:30.233Z,997.19
2019-03-06T10:34:30.217Z,997.24
2019-03-06T10:35:30.206Z,997.30
2019-03-06T10:36:30.203Z,997.27
2019-03-06T10:37:30.205Z,997.44
2019-03-06T10:38:30.183Z,997.15
2019-03-06T10:39:30.160Z,997.19
2019-03-06T10:40:30.161Z,997.19
2019-03-06T10:41:30.137Z,997.21
2019-03-06T10:42:30.186Z,997.21
2019-03-06T10:43:30.120Z,997.19
2019-03-06T10:44:30.162Z,997.15
2019-03-06T10:45:30.092Z,997.14
2019-03-06T10:46:30.080Z,997.02
2019-03-06T10:47:30.073Z,997.00
2019-03-06T10:48:30.079Z,997.05
2019-03-06T10:49:30.060Z,996.97
2019-03-06T10:51:31.234Z,997.05
2019-03-06T10:52:30.013Z,997.09
2019-03-06T10:53:30.023Z,997.02
2019-03-06T10:54:29.995Z,997.07
2019-03-06T10:55:29.995Z,997.03
2019-03-06T10:56:29.966Z,997.05
2019-03-06T10:57:29.955Z,997.07
2019-03-06T10:58:29.963Z,996.96
2019-03-06T10:59:29.936Z,996.93
2019-03-06T11:00:29.923Z,996.98
2019-03-06T11:01:29.923Z,996.92
2019-03-06T11:02:29.899Z,996.97
2019-03-06T11:03:29.907Z,996.88
2019-03-06T11:04:29.876Z,996.97
2019-03-06T11:05:29.874Z,996.88
2019-03-06T11:06:29.859Z,996.97
2019-03-06T11:07:29.857Z,997.00
2019-03-06T11:08:29.870Z,997.04
2019-03-06T11:09:29.820Z,997.09
2019-03-06T11:10:29.810Z,997.04
2019-03-06T11:11:29.798Z,996.98
2019-03-06T11:12:29.793Z,996.91
2019-03-06T11:13:29.800Z,996.91
2019-03-06T11:14:29.767Z,996.86
2019-03-06T11:15:29.751Z,996.88
2019-03-06T11:16:30.579Z,996.80
2019-03-06T11:17:29.733Z,996.88
2019-03-06T11:18:29.741Z,996.78
2019-03-06T11:19:29.712Z,996.84
2019-03-06T11:20:29.694Z,996.81
2019-03-06T11:21:29.682Z,996.83
2019-03-06T11:22:29.675Z,996.90
2019-03-06T11:23:29.679Z,996.86
2019-03-06T11:24:29.652Z,996.84
2019-03-06T11:25:29.640Z,996.86
2019-03-06T11:26:29.627Z,996.80
2019-03-06T11:27:29.627Z,996.79
2019-03-06T11:28:29.635Z,996.68
2019-03-06T11:29:29.593Z,996.73
2019-03-06T11:30:29.604Z,996.69
2019-03-06T11:31:29.578Z,996.65
2019-03-06T11:32:29.562Z,996.60
2019-03-06T11:33:29.567Z,996.61
2019-03-06T11:34:29.544Z,996.60
2019-03-06T11:35:29.530Z,996.52
2019-03-06T11:36:29.533Z,996.51
2019-03-06T11:37:29.507Z,996.45
2019-03-06T11:38:29.522Z,996.36
2019-03-06T11:39:29.492Z,996.39
2019-03-06T11:40:29.471Z,996.39
2019-03-06T11:41:29.461Z,996.38
2019-03-06T11:42:29.461Z,996.28
2019-03-06T11:43:29.469Z,996.43
2019-03-06T11:44:29.475Z,996.18
2019-03-06T11:45:29.414Z,996.20
2019-03-06T11:46:29.411Z,996.12
2019-03-06T11:47:29.402Z,996.16
2019-03-06T11:48:29.406Z,996.14
2019-03-06T11:49:29.369Z,996.12
2019-03-06T11:50:29.360Z,996.02
2019-03-06T11:51:29.347Z,996.09
2019-03-06T11:52:29.345Z,995.95
2019-03-06T11:53:29.347Z,996.01
2019-03-06T11:54:29.350Z,995.93
2019-03-06T11:55:29.302Z,995.81
2019-03-06T11:56:29.306Z,995.86
2019-03-06T11:57:29.280Z,995.82
2019-03-06T11:58:29.292Z,995.81
2019-03-06T11:59:29.262Z,995.85
2019-03-06T12:00:29.271Z,995.97
2019-03-06T12:01:29.236Z,995.81
2019-03-06T12:02:29.223Z,995.86
2019-03-06T12:03:29.232Z,995.86
2019-03-06T12:04:29.201Z,995.75
2019-03-06T12:05:29.210Z,995.70
2019-03-06T12:06:29.185Z,995.71
2019-03-06T12:07:29.172Z,995.66
2019-03-06T12:08:29.176Z,995.59
2019-03-06T12:09:29.146Z,995.52
2019-03-06T12:10:29.137Z,995.48
2019-03-06T12:11:29.137Z,995.54
2019-03-06T12:12:29.136Z,995.56
2019-03-06T12:13:29.129Z,995.54
2019-03-06T12:14:29.090Z,995.43
2019-03-06T12:15:29.079Z,995.40
2019-03-06T12:16:29.072Z,995.47